sensor_id;sensor_type;location;lat;lon;timestamp;P1;durP1;ratioP1;P2;durP2;ratioP2
3587;SDS011;1808;53.596;9.972;2023-01-29T00:01:03;75.03;;;27.52;;
3587;SDS011;1808;53.596;9.972;2023-01-29T00:03:30;64.32;;;23.23;;
3587;SDS011;1808;53.596;9.972;2023-01-29T00:05:59;66.43;;;21.48;;
3587;SDS011;1808;53.596;9.972;2023-01-29T00:08:25;71.07;;;23.98;;
3587;SDS011;1808;53.596;9.972;2023-01-29T00:10:52;66.22;;;24.52;;
3587;SDS011;1808;53.596;9.972;2023-01-29T00:13:18;71.97;;;24.67;;
3587;SDS011;1808;53.596;9.972;2023-01-29T00:15:52;71.22;;;25.13;;
3587;SDS011;1808;53.596;9.972;2023-01-29T00:18:19;68.85;;;26.88;;
3587;SDS011;1808;53.596;9.972;2023-01-29T00:20:45;65.35;;;23.92;;
3587;SDS011;1808;53.596;9.972;2023-01-29T00:23:13;60.33;;;23.42;;
3587;SDS011;1808;53.596;9.972;2023-01-29T00:25:40;59.90;;;21.30;;
3587;SDS011;1808;53.596;9.972;2023-01-29T00:28:06;64.00;;;23.55;;
3587;SDS011;1808;53.596;9.972;2023-01-29T00:30:34;59.55;;;21.40;;
3587;SDS011;1808;53.596;9.972;2023-01-29T00:33:00;86.03;;;33.47;;
3587;SDS011;1808;53.596;9.972;2023-01-29T00:35:27;55.30;;;20.63;;
3587;SDS011;1808;53.596;9.972;2023-01-29T00:37:53;81.50;;;27.98;;
3587;SDS011;1808;53.596;9.972;2023-01-29T00:40:21;67.18;;;22.00;;
3587;SDS011;1808;53.596;9.972;2023-01-29T00:42:48;82.57;;;28.05;;
3587;SDS011;1808;53.596;9.972;2023-01-29T00:45:32;55.00;;;19.23;;
3587;SDS011;1808;53.596;9.972;2023-01-29T00:48:00;62.33;;;20.27;;
3587;SDS011;1808;53.596;9.972;2023-01-29T00:50:27;71.65;;;22.83;;
3587;SDS011;1808;53.596;9.972;2023-01-29T00:52:53;62.63;;;20.17;;
3587;SDS011;1808;53.596;9.972;2023-01-29T00:55:21;67.95;;;23.75;;
3587;SDS011;1808;53.596;9.972;2023-01-29T00:57:48;60.88;;;19.63;;
3587;SDS011;1808;53.596;9.972;2023-01-29T01:00:16;70.07;;;20.00;;
3587;SDS011;1808;53.596;9.972;2023-01-29T01:02:43;68.22;;;23.17;;
3587;SDS011;1808;53.596;9.972;2023-01-29T01:05:27;59.30;;;19.70;;
3587;SDS011;1808;53.596;9.972;2023-01-29T01:07:54;65.90;;;21.02;;
3587;SDS011;1808;53.596;9.972;2023-01-29T01:10:24;62.13;;;20.00;;
3587;SDS011;1808;53.596;9.972;2023-01-29T01:12:52;73.43;;;21.30;;
3587;SDS011;1808;53.596;9.972;2023-01-29T01:15:21;80.20;;;25.83;;
3587;SDS011;1808;53.596;9.972;2023-01-29T01:17:50;61.28;;;19.38;;
3587;SDS011;1808;53.596;9.972;2023-01-29T01:20:17;70.72;;;25.10;;
3587;SDS011;1808;53.596;9.972;2023-01-29T01:22:44;53.72;;;18.73;;
3587;SDS011;1808;53.596;9.972;2023-01-29T01:25:10;62.63;;;19.30;;
3587;SDS011;1808;53.596;9.972;2023-01-29T01:27:38;64.03;;;22.17;;
3587;SDS011;1808;53.596;9.972;2023-01-29T01:30:07;66.85;;;21.77;;
3587;SDS011;1808;53.596;9.972;2023-01-29T01:32:35;68.10;;;22.60;;
3587;SDS011;1808;53.596;9.972;2023-01-29T01:35:02;72.03;;;22.65;;
3587;SDS011;1808;53.596;9.972;2023-01-29T01:37:29;70.10;;;21.20;;
3587;SDS011;1808;53.596;9.972;2023-01-29T01:39:55;75.32;;;22.92;;
3587;SDS011;1808;53.596;9.972;2023-01-29T01:42:22;72.30;;;23.70;;
3587;SDS011;1808;53.596;9.972;2023-01-29T01:44:55;71.05;;;24.35;;
3587;SDS011;1808;53.596;9.972;2023-01-29T01:47:26;71.00;;;23.42;;
3587;SDS011;1808;53.596;9.972;2023-01-29T01:49:55;58.63;;;20.50;;
3587;SDS011;1808;53.596;9.972;2023-01-29T01:52:22;64.15;;;21.38;;
3587;SDS011;1808;53.596;9.972;2023-01-29T01:54:48;69.18;;;21.88;;
3587;SDS011;1808;53.596;9.972;2023-01-29T01:57:17;63.33;;;22.85;;
3587;SDS011;1808;53.596;9.972;2023-01-29T01:59:49;62.38;;;21.35;;
3587;SDS011;1808;53.596;9.972;2023-01-29T02:02:20;71.15;;;23.88;;
3587;SDS011;1808;53.596;9.972;2023-01-29T02:05:04;65.50;;;23.17;;
3587;SDS011;1808;53.596;9.972;2023-01-29T02:07:49;67.38;;;24.45;;
3587;SDS011;1808;53.596;9.972;2023-01-29T02:10:34;60.47;;;21.63;;
3587;SDS011;1808;53.596;9.972;2023-01-29T02:13:03;84.78;;;35.72;;
3587;SDS011;1808;53.596;9.972;2023-01-29T02:15:30;66.90;;;22.95;;
3587;SDS011;1808;53.596;9.972;2023-01-29T02:17:58;69.80;;;24.95;;
3587;SDS011;1808;53.596;9.972;2023-01-29T02:20:25;74.32;;;22.95;;
3587;SDS011;1808;53.596;9.972;2023-01-29T02:23:01;72.45;;;25.70;;
3587;SDS011;1808;53.596;9.972;2023-01-29T02:25:48;74.78;;;26.67;;
3587;SDS011;1808;53.596;9.972;2023-01-29T02:28:31;69.43;;;25.15;;
3587;SDS011;1808;53.596;9.972;2023-01-29T02:31:05;69.18;;;23.55;;
3587;SDS011;1808;53.596;9.972;2023-01-29T02:33:36;70.25;;;25.38;;
3587;SDS011;1808;53.596;9.972;2023-01-29T02:38:37;71.00;;;25.88;;
3587;SDS011;1808;53.596;9.972;2023-01-29T02:41:07;60.20;;;19.67;;
3587;SDS011;1808;53.596;9.972;2023-01-29T02:43:40;75.85;;;23.67;;
3587;SDS011;1808;53.596;9.972;2023-01-29T02:46:10;59.63;;;22.30;;
3587;SDS011;1808;53.596;9.972;2023-01-29T02:48:42;69.40;;;22.85;;
3587;SDS011;1808;53.596;9.972;2023-01-29T02:51:12;72.85;;;23.88;;
3587;SDS011;1808;53.596;9.972;2023-01-29T02:53:45;85.13;;;30.98;;
3587;SDS011;1808;53.596;9.972;2023-01-29T02:56:16;69.80;;;23.33;;
3587;SDS011;1808;53.596;9.972;2023-01-29T02:58:46;68.22;;;22.05;;
3587;SDS011;1808;53.596;9.972;2023-01-29T03:01:16;45.08;;;17.77;;
3587;SDS011;1808;53.596;9.972;2023-01-29T03:03:46;68.53;;;22.38;;
3587;SDS011;1808;53.596;9.972;2023-01-29T03:06:16;77.72;;;26.83;;
3587;SDS011;1808;53.596;9.972;2023-01-29T03:08:47;83.43;;;26.98;;
3587;SDS011;1808;53.596;9.972;2023-01-29T03:11:18;51.42;;;18.65;;
3587;SDS011;1808;53.596;9.972;2023-01-29T03:13:47;78.72;;;24.45;;
3587;SDS011;1808;53.596;9.972;2023-01-29T03:16:19;82.18;;;23.45;;
3587;SDS011;1808;53.596;9.972;2023-01-29T03:18:48;78.32;;;23.95;;
3587;SDS011;1808;53.596;9.972;2023-01-29T03:21:18;82.18;;;29.02;;
3587;SDS011;1808;53.596;9.972;2023-01-29T03:24:05;75.00;;;24.63;;
3587;SDS011;1808;53.596;9.972;2023-01-29T03:26:51;74.03;;;22.88;;
3587;SDS011;1808;53.596;9.972;2023-01-29T03:29:37;69.80;;;23.42;;
3587;SDS011;1808;53.596;9.972;2023-01-29T03:32:21;81.47;;;26.63;;
3587;SDS011;1808;53.596;9.972;2023-01-29T03:34:51;76.35;;;25.30;;
3587;SDS011;1808;53.596;9.972;2023-01-29T03:37:21;72.93;;;25.30;;
3587;SDS011;1808;53.596;9.972;2023-01-29T03:39:50;69.28;;;24.05;;
3587;SDS011;1808;53.596;9.972;2023-01-29T03:42:17;77.80;;;24.45;;
3587;SDS011;1808;53.596;9.972;2023-01-29T03:44:50;70.55;;;23.23;;
3587;SDS011;1808;53.596;9.972;2023-01-29T03:47:21;71.60;;;24.40;;
3587;SDS011;1808;53.596;9.972;2023-01-29T03:49:54;87.65;;;30.67;;
3587;SDS011;1808;53.596;9.972;2023-01-29T03:52:24;87.28;;;32.53;;
3587;SDS011;1808;53.596;9.972;2023-01-29T03:54:53;66.15;;;23.52;;
3587;SDS011;1808;53.596;9.972;2023-01-29T03:57:25;72.50;;;23.02;;
3587;SDS011;1808;53.596;9.972;2023-01-29T03:59:56;84.25;;;27.25;;
3587;SDS011;1808;53.596;9.972;2023-01-29T04:02:29;80.65;;;27.88;;
3587;SDS011;1808;53.596;9.972;2023-01-29T04:04:58;76.82;;;23.50;;
3587;SDS011;1808;53.596;9.972;2023-01-29T04:07:31;63.45;;;21.90;;
3587;SDS011;1808;53.596;9.972;2023-01-29T04:09:59;76.20;;;26.65;;
3587;SDS011;1808;53.596;9.972;2023-01-29T04:12:27;82.97;;;26.30;;
3587;SDS011;1808;53.596;9.972;2023-01-29T04:14:56;76.97;;;25.38;;
3587;SDS011;1808;53.596;9.972;2023-01-29T04:17:26;70.25;;;23.20;;
3587;SDS011;1808;53.596;9.972;2023-01-29T04:19:56;84.00;;;28.67;;
3587;SDS011;1808;53.596;9.972;2023-01-29T04:22:25;78.28;;;24.25;;
3587;SDS011;1808;53.596;9.972;2023-01-29T04:24:55;74.97;;;25.38;;
3587;SDS011;1808;53.596;9.972;2023-01-29T04:27:31;73.95;;;25.58;;
3587;SDS011;1808;53.596;9.972;2023-01-29T04:30:08;73.40;;;22.95;;
3587;SDS011;1808;53.596;9.972;2023-01-29T04:32:45;83.03;;;28.42;;
3587;SDS011;1808;53.596;9.972;2023-01-29T04:35:22;92.88;;;37.85;;
3587;SDS011;1808;53.596;9.972;2023-01-29T04:37:55;78.93;;;25.40;;
3587;SDS011;1808;53.596;9.972;2023-01-29T04:40:28;61.50;;;21.92;;
3587;SDS011;1808;53.596;9.972;2023-01-29T04:43:02;76.70;;;24.35;;
3587;SDS011;1808;53.596;9.972;2023-01-29T04:45:34;70.68;;;21.90;;
3587;SDS011;1808;53.596;9.972;2023-01-29T04:48:06;61.45;;;18.75;;
3587;SDS011;1808;53.596;9.972;2023-01-29T04:50:37;83.43;;;26.05;;
3587;SDS011;1808;53.596;9.972;2023-01-29T04:53:06;89.32;;;27.88;;
3587;SDS011;1808;53.596;9.972;2023-01-29T04:55:38;79.28;;;27.33;;
3587;SDS011;1808;53.596;9.972;2023-01-29T04:58:06;53.72;;;20.38;;
3587;SDS011;1808;53.596;9.972;2023-01-29T05:00:38;83.78;;;25.55;;
3587;SDS011;1808;53.596;9.972;2023-01-29T05:03:06;87.55;;;27.92;;
3587;SDS011;1808;53.596;9.972;2023-01-29T05:05:33;78.07;;;22.75;;
3587;SDS011;1808;53.596;9.972;2023-01-29T05:08:00;82.82;;;25.80;;
3587;SDS011;1808;53.596;9.972;2023-01-29T05:10:27;78.20;;;24.85;;
3587;SDS011;1808;53.596;9.972;2023-01-29T05:12:55;84.63;;;24.27;;
3587;SDS011;1808;53.596;9.972;2023-01-29T05:15:24;90.72;;;26.25;;
3587;SDS011;1808;53.596;9.972;2023-01-29T05:17:55;86.82;;;25.52;;
3587;SDS011;1808;53.596;9.972;2023-01-29T05:20:25;80.63;;;22.98;;
3587;SDS011;1808;53.596;9.972;2023-01-29T05:22:52;86.32;;;25.13;;
3587;SDS011;1808;53.596;9.972;2023-01-29T05:25:20;84.07;;;26.38;;
3587;SDS011;1808;53.596;9.972;2023-01-29T05:27:49;91.22;;;26.13;;
3587;SDS011;1808;53.596;9.972;2023-01-29T05:30:35;96.90;;;28.52;;
3587;SDS011;1808;53.596;9.972;2023-01-29T05:33:04;88.70;;;24.70;;
3587;SDS011;1808;53.596;9.972;2023-01-29T05:35:34;98.07;;;24.48;;
3587;SDS011;1808;53.596;9.972;2023-01-29T05:38:00;90.38;;;26.13;;
3587;SDS011;1808;53.596;9.972;2023-01-29T05:40:28;86.00;;;23.70;;
3587;SDS011;1808;53.596;9.972;2023-01-29T05:42:54;82.05;;;23.55;;
3587;SDS011;1808;53.596;9.972;2023-01-29T05:45:21;86.60;;;25.42;;
3587;SDS011;1808;53.596;9.972;2023-01-29T05:47:47;95.25;;;26.80;;
3587;SDS011;1808;53.596;9.972;2023-01-29T05:50:15;90.10;;;25.00;;
3587;SDS011;1808;53.596;9.972;2023-01-29T05:52:41;89.20;;;26.10;;
3587;SDS011;1808;53.596;9.972;2023-01-29T05:55:08;87.95;;;27.25;;
3587;SDS011;1808;53.596;9.972;2023-01-29T05:57:35;89.97;;;25.75;;
3587;SDS011;1808;53.596;9.972;2023-01-29T06:00:01;115.45;;;32.88;;
3587;SDS011;1808;53.596;9.972;2023-01-29T06:02:28;94.22;;;29.15;;
3587;SDS011;1808;53.596;9.972;2023-01-29T06:04:55;90.30;;;24.25;;
3587;SDS011;1808;53.596;9.972;2023-01-29T06:07:23;82.75;;;23.35;;
3587;SDS011;1808;53.596;9.972;2023-01-29T06:09:49;88.38;;;26.88;;
3587;SDS011;1808;53.596;9.972;2023-01-29T06:12:15;83.63;;;25.70;;
3587;SDS011;1808;53.596;9.972;2023-01-29T06:14:42;93.00;;;27.63;;
3587;SDS011;1808;53.596;9.972;2023-01-29T06:17:08;86.47;;;24.70;;
3587;SDS011;1808;53.596;9.972;2023-01-29T06:19:34;96.78;;;26.40;;
3587;SDS011;1808;53.596;9.972;2023-01-29T06:22:01;84.95;;;23.30;;
3587;SDS011;1808;53.596;9.972;2023-01-29T06:24:28;78.35;;;23.52;;
3587;SDS011;1808;53.596;9.972;2023-01-29T06:26:56;91.25;;;23.40;;
3587;SDS011;1808;53.596;9.972;2023-01-29T06:29:23;84.03;;;23.23;;
3587;SDS011;1808;53.596;9.972;2023-01-29T06:31:49;79.85;;;21.08;;
3587;SDS011;1808;53.596;9.972;2023-01-29T06:34:15;85.38;;;23.38;;
3587;SDS011;1808;53.596;9.972;2023-01-29T06:36:41;74.45;;;22.27;;
3587;SDS011;1808;53.596;9.972;2023-01-29T06:39:08;83.45;;;25.65;;
3587;SDS011;1808;53.596;9.972;2023-01-29T06:41:36;62.20;;;20.80;;
3587;SDS011;1808;53.596;9.972;2023-01-29T06:44:02;55.17;;;18.25;;
3587;SDS011;1808;53.596;9.972;2023-01-29T06:46:29;84.95;;;23.15;;
3587;SDS011;1808;53.596;9.972;2023-01-29T06:48:56;84.50;;;24.80;;
3587;SDS011;1808;53.596;9.972;2023-01-29T06:51:23;76.65;;;23.60;;
3587;SDS011;1808;53.596;9.972;2023-01-29T06:53:49;67.13;;;19.38;;
3587;SDS011;1808;53.596;9.972;2023-01-29T06:56:18;85.93;;;26.67;;
3587;SDS011;1808;53.596;9.972;2023-01-29T06:58:46;73.97;;;23.35;;
3587;SDS011;1808;53.596;9.972;2023-01-29T07:01:12;84.15;;;26.85;;
3587;SDS011;1808;53.596;9.972;2023-01-29T07:03:38;90.20;;;23.80;;
3587;SDS011;1808;53.596;9.972;2023-01-29T07:06:05;76.38;;;23.58;;
3587;SDS011;1808;53.596;9.972;2023-01-29T07:08:34;82.53;;;24.65;;
3587;SDS011;1808;53.596;9.972;2023-01-29T07:11:01;91.40;;;29.65;;
3587;SDS011;1808;53.596;9.972;2023-01-29T07:13:28;82.22;;;26.20;;
3587;SDS011;1808;53.596;9.972;2023-01-29T07:15:57;71.32;;;24.35;;
3587;SDS011;1808;53.596;9.972;2023-01-29T07:18:24;78.28;;;24.77;;
3587;SDS011;1808;53.596;9.972;2023-01-29T07:20:50;77.70;;;24.48;;
3587;SDS011;1808;53.596;9.972;2023-01-29T07:23:17;73.20;;;23.52;;
3587;SDS011;1808;53.596;9.972;2023-01-29T07:25:43;75.00;;;25.75;;
3587;SDS011;1808;53.596;9.972;2023-01-29T07:28:09;72.93;;;23.73;;
3587;SDS011;1808;53.596;9.972;2023-01-29T07:30:36;93.88;;;27.15;;
3587;SDS011;1808;53.596;9.972;2023-01-29T07:33:04;78.63;;;24.35;;
3587;SDS011;1808;53.596;9.972;2023-01-29T07:35:34;81.95;;;28.08;;
3587;SDS011;1808;53.596;9.972;2023-01-29T07:38:02;85.50;;;27.00;;
3587;SDS011;1808;53.596;9.972;2023-01-29T07:40:28;80.25;;;26.30;;
3587;SDS011;1808;53.596;9.972;2023-01-29T07:42:56;92.55;;;29.30;;
3587;SDS011;1808;53.596;9.972;2023-01-29T07:45:23;75.80;;;23.95;;
3587;SDS011;1808;53.596;9.972;2023-01-29T07:47:50;94.97;;;28.38;;
3587;SDS011;1808;53.596;9.972;2023-01-29T07:50:18;99.07;;;33.30;;
3587;SDS011;1808;53.596;9.972;2023-01-29T07:52:45;91.15;;;26.88;;
3587;SDS011;1808;53.596;9.972;2023-01-29T07:55:11;85.80;;;28.85;;
3587;SDS011;1808;53.596;9.972;2023-01-29T07:57:37;95.63;;;29.83;;
3587;SDS011;1808;53.596;9.972;2023-01-29T08:00:04;93.47;;;29.30;;
3587;SDS011;1808;53.596;9.972;2023-01-29T08:02:31;88.70;;;28.30;;
3587;SDS011;1808;53.596;9.972;2023-01-29T08:04:57;101.53;;;34.45;;
3587;SDS011;1808;53.596;9.972;2023-01-29T08:07:25;87.30;;;27.63;;
3587;SDS011;1808;53.596;9.972;2023-01-29T08:09:51;101.78;;;32.75;;
3587;SDS011;1808;53.596;9.972;2023-01-29T08:12:18;92.43;;;28.77;;
3587;SDS011;1808;53.596;9.972;2023-01-29T08:14:44;100.53;;;31.27;;
3587;SDS011;1808;53.596;9.972;2023-01-29T08:17:11;100.07;;;30.27;;
3587;SDS011;1808;53.596;9.972;2023-01-29T08:19:37;108.57;;;35.83;;
3587;SDS011;1808;53.596;9.972;2023-01-29T08:22:04;107.32;;;34.67;;
3587;SDS011;1808;53.596;9.972;2023-01-29T08:24:32;99.43;;;31.08;;
3587;SDS011;1808;53.596;9.972;2023-01-29T08:26:58;105.80;;;34.47;;
3587;SDS011;1808;53.596;9.972;2023-01-29T08:29:24;104.30;;;34.20;;
3587;SDS011;1808;53.596;9.972;2023-01-29T08:31:51;131.93;;;40.67;;
3587;SDS011;1808;53.596;9.972;2023-01-29T08:34:17;102.10;;;31.88;;
3587;SDS011;1808;53.596;9.972;2023-01-29T08:36:43;127.30;;;36.92;;
3587;SDS011;1808;53.596;9.972;2023-01-29T08:39:10;116.15;;;34.97;;
3587;SDS011;1808;53.596;9.972;2023-01-29T08:41:38;119.25;;;38.00;;
3587;SDS011;1808;53.596;9.972;2023-01-29T08:44:04;136.10;;;42.47;;
3587;SDS011;1808;53.596;9.972;2023-01-29T08:46:31;118.85;;;38.33;;
3587;SDS011;1808;53.596;9.972;2023-01-29T08:48:57;99.70;;;32.60;;
3587;SDS011;1808;53.596;9.972;2023-01-29T08:51:23;111.80;;;34.03;;
3587;SDS011;1808;53.596;9.972;2023-01-29T08:53:50;125.57;;;39.28;;
3587;SDS011;1808;53.596;9.972;2023-01-29T08:56:16;128.00;;;40.10;;
3587;SDS011;1808;53.596;9.972;2023-01-29T08:58:44;131.48;;;42.38;;
3587;SDS011;1808;53.596;9.972;2023-01-29T09:01:11;115.45;;;38.10;;
3587;SDS011;1808;53.596;9.972;2023-01-29T09:03:38;111.30;;;35.63;;
3587;SDS011;1808;53.596;9.972;2023-01-29T09:06:08;146.68;;;46.00;;
3587;SDS011;1808;53.596;9.972;2023-01-29T09:08:35;134.10;;;39.28;;
3587;SDS011;1808;53.596;9.972;2023-01-29T09:11:01;109.50;;;33.63;;
3587;SDS011;1808;53.596;9.972;2023-01-29T09:13:28;145.63;;;41.42;;
3587;SDS011;1808;53.596;9.972;2023-01-29T09:15:58;165.18;;;48.53;;
3587;SDS011;1808;53.596;9.972;2023-01-29T09:18:25;168.05;;;48.22;;
3587;SDS011;1808;53.596;9.972;2023-01-29T09:20:51;169.93;;;53.47;;
3587;SDS011;1808;53.596;9.972;2023-01-29T09:23:18;164.30;;;52.08;;
3587;SDS011;1808;53.596;9.972;2023-01-29T09:25:45;150.95;;;43.13;;
3587;SDS011;1808;53.596;9.972;2023-01-29T09:28:11;179.68;;;50.35;;
3587;SDS011;1808;53.596;9.972;2023-01-29T09:30:37;155.00;;;44.58;;
3587;SDS011;1808;53.596;9.972;2023-01-29T09:33:05;153.60;;;45.50;;
3587;SDS011;1808;53.596;9.972;2023-01-29T09:35:32;156.73;;;45.45;;
3587;SDS011;1808;53.596;9.972;2023-01-29T09:37:59;161.25;;;46.25;;
3587;SDS011;1808;53.596;9.972;2023-01-29T09:40:26;169.52;;;46.08;;
3587;SDS011;1808;53.596;9.972;2023-01-29T09:42:57;160.60;;;45.47;;
3587;SDS011;1808;53.596;9.972;2023-01-29T09:45:25;148.65;;;41.13;;
3587;SDS011;1808;53.596;9.972;2023-01-29T09:47:52;149.85;;;43.03;;
3587;SDS011;1808;53.596;9.972;2023-01-29T09:50:23;157.32;;;43.58;;
3587;SDS011;1808;53.596;9.972;2023-01-29T09:52:54;173.02;;;50.22;;
3587;SDS011;1808;53.596;9.972;2023-01-29T09:55:23;175.68;;;50.38;;
3587;SDS011;1808;53.596;9.972;2023-01-29T09:57:52;157.23;;;48.30;;
3587;SDS011;1808;53.596;9.972;2023-01-29T10:00:22;141.88;;;42.42;;
3587;SDS011;1808;53.596;9.972;2023-01-29T10:02:56;212.13;;;66.78;;
3587;SDS011;1808;53.596;9.972;2023-01-29T10:05:40;185.55;;;53.95;;
3587;SDS011;1808;53.596;9.972;2023-01-29T10:08:17;145.80;;;47.38;;
3587;SDS011;1808;53.596;9.972;2023-01-29T10:10:59;217.90;;;76.57;;
3587;SDS011;1808;53.596;9.972;2023-01-29T10:13:31;183.30;;;52.92;;
3587;SDS011;1808;53.596;9.972;2023-01-29T10:16:07;147.80;;;43.85;;
3587;SDS011;1808;53.596;9.972;2023-01-29T10:18:51;144.73;;;41.38;;
3587;SDS011;1808;53.596;9.972;2023-01-29T10:21:30;146.05;;;48.42;;
3587;SDS011;1808;53.596;9.972;2023-01-29T10:24:06;139.32;;;41.22;;
3587;SDS011;1808;53.596;9.972;2023-01-29T10:26:40;121.50;;;39.28;;
3587;SDS011;1808;53.596;9.972;2023-01-29T10:29:07;176.82;;;50.53;;
3587;SDS011;1808;53.596;9.972;2023-01-29T10:31:36;178.60;;;53.80;;
3587;SDS011;1808;53.596;9.972;2023-01-29T10:34:06;140.65;;;43.25;;
3587;SDS011;1808;53.596;9.972;2023-01-29T10:36:39;190.03;;;56.03;;
3587;SDS011;1808;53.596;9.972;2023-01-29T10:39:08;180.45;;;63.60;;
3587;SDS011;1808;53.596;9.972;2023-01-29T10:41:43;189.77;;;57.53;;
3587;SDS011;1808;53.596;9.972;2023-01-29T10:44:22;190.60;;;54.85;;
3587;SDS011;1808;53.596;9.972;2023-01-29T10:46:58;196.48;;;56.03;;
3587;SDS011;1808;53.596;9.972;2023-01-29T10:49:36;189.57;;;54.33;;
3587;SDS011;1808;53.596;9.972;2023-01-29T10:52:20;179.30;;;53.85;;
3587;SDS011;1808;53.596;9.972;2023-01-29T10:54:59;172.32;;;48.97;;
3587;SDS011;1808;53.596;9.972;2023-01-29T11:00:16;176.05;;;59.55;;
3587;SDS011;1808;53.596;9.972;2023-01-29T11:02:46;179.02;;;53.75;;
3587;SDS011;1808;53.596;9.972;2023-01-29T11:05:18;146.25;;;46.58;;
3587;SDS011;1808;53.596;9.972;2023-01-29T11:07:47;159.57;;;50.27;;
3587;SDS011;1808;53.596;9.972;2023-01-29T11:10:15;179.00;;;52.80;;
3587;SDS011;1808;53.596;9.972;2023-01-29T11:12:42;151.75;;;45.70;;
3587;SDS011;1808;53.596;9.972;2023-01-29T11:15:13;166.80;;;48.97;;
3587;SDS011;1808;53.596;9.972;2023-01-29T11:20:26;162.07;;;53.15;;
3587;SDS011;1808;53.596;9.972;2023-01-29T11:22:55;148.82;;;51.42;;
3587;SDS011;1808;53.596;9.972;2023-01-29T11:25:22;167.07;;;55.53;;
3587;SDS011;1808;53.596;9.972;2023-01-29T11:27:49;145.07;;;47.53;;
3587;SDS011;1808;53.596;9.972;2023-01-29T11:30:19;149.65;;;45.25;;
3587;SDS011;1808;53.596;9.972;2023-01-29T11:32:48;136.77;;;51.30;;
3587;SDS011;1808;53.596;9.972;2023-01-29T11:35:19;131.65;;;46.80;;
3587;SDS011;1808;53.596;9.972;2023-01-29T11:37:47;131.90;;;42.03;;
3587;SDS011;1808;53.596;9.972;2023-01-29T11:40:38;160.02;;;53.53;;
3587;SDS011;1808;53.596;9.972;2023-01-29T11:43:18;137.20;;;48.75;;
3587;SDS011;1808;53.596;9.972;2023-01-29T11:45:49;125.30;;;41.90;;
3587;SDS011;1808;53.596;9.972;2023-01-29T11:48:17;142.00;;;48.67;;
3587;SDS011;1808;53.596;9.972;2023-01-29T11:50:49;109.88;;;39.90;;
3587;SDS011;1808;53.596;9.972;2023-01-29T11:53:21;128.63;;;50.03;;
3587;SDS011;1808;53.596;9.972;2023-01-29T11:55:51;146.85;;;55.80;;
3587;SDS011;1808;53.596;9.972;2023-01-29T11:58:20;126.05;;;42.30;;
3587;SDS011;1808;53.596;9.972;2023-01-29T12:00:51;118.65;;;39.83;;
3587;SDS011;1808;53.596;9.972;2023-01-29T12:03:20;135.30;;;60.92;;
3587;SDS011;1808;53.596;9.972;2023-01-29T12:05:52;121.38;;;39.10;;
3587;SDS011;1808;53.596;9.972;2023-01-29T12:08:19;120.97;;;41.17;;
3587;SDS011;1808;53.596;9.972;2023-01-29T12:10:47;117.07;;;39.60;;
3587;SDS011;1808;53.596;9.972;2023-01-29T12:13:23;105.88;;;37.17;;
3587;SDS011;1808;53.596;9.972;2023-01-29T12:16:04;109.53;;;43.20;;
3587;SDS011;1808;53.596;9.972;2023-01-29T12:18:36;115.05;;;39.35;;
3587;SDS011;1808;53.596;9.972;2023-01-29T12:21:10;97.07;;;32.70;;
3587;SDS011;1808;53.596;9.972;2023-01-29T12:23:40;69.80;;;27.20;;
3587;SDS011;1808;53.596;9.972;2023-01-29T12:26:12;127.90;;;54.20;;
3587;SDS011;1808;53.596;9.972;2023-01-29T12:28:45;103.57;;;37.65;;
3587;SDS011;1808;53.596;9.972;2023-01-29T12:31:18;106.13;;;36.28;;
3587;SDS011;1808;53.596;9.972;2023-01-29T12:33:51;119.22;;;39.00;;
3587;SDS011;1808;53.596;9.972;2023-01-29T12:36:21;113.15;;;36.85;;
3587;SDS011;1808;53.596;9.972;2023-01-29T12:38:50;87.53;;;30.83;;
3587;SDS011;1808;53.596;9.972;2023-01-29T12:41:24;112.28;;;37.55;;
3587;SDS011;1808;53.596;9.972;2023-01-29T12:43:56;122.57;;;40.63;;
3587;SDS011;1808;53.596;9.972;2023-01-29T12:46:25;121.70;;;39.35;;
3587;SDS011;1808;53.596;9.972;2023-01-29T12:48:54;108.07;;;37.75;;
3587;SDS011;1808;53.596;9.972;2023-01-29T12:51:23;116.28;;;39.40;;
3587;SDS011;1808;53.596;9.972;2023-01-29T12:53:52;124.95;;;49.67;;
3587;SDS011;1808;53.596;9.972;2023-01-29T12:56:23;111.88;;;38.78;;
3587;SDS011;1808;53.596;9.972;2023-01-29T12:58:53;110.05;;;40.72;;
3587;SDS011;1808;53.596;9.972;2023-01-29T13:01:23;108.63;;;39.13;;
3587;SDS011;1808;53.596;9.972;2023-01-29T13:03:54;105.38;;;37.13;;
3587;SDS011;1808;53.596;9.972;2023-01-29T13:06:24;104.30;;;37.00;;
3587;SDS011;1808;53.596;9.972;2023-01-29T13:08:54;108.55;;;38.65;;
3587;SDS011;1808;53.596;9.972;2023-01-29T13:11:23;125.10;;;43.13;;
3587;SDS011;1808;53.596;9.972;2023-01-29T13:13:53;125.45;;;47.88;;
3587;SDS011;1808;53.596;9.972;2023-01-29T13:16:24;118.32;;;38.28;;
3587;SDS011;1808;53.596;9.972;2023-01-29T13:18:53;120.40;;;43.78;;
3587;SDS011;1808;53.596;9.972;2023-01-29T13:21:22;98.32;;;35.75;;
3587;SDS011;1808;53.596;9.972;2023-01-29T13:23:51;84.47;;;31.85;;
3587;SDS011;1808;53.596;9.972;2023-01-29T13:26:19;115.30;;;39.95;;
3587;SDS011;1808;53.596;9.972;2023-01-29T13:28:46;100.47;;;38.88;;
3587;SDS011;1808;53.596;9.972;2023-01-29T13:31:17;109.85;;;41.55;;
3587;SDS011;1808;53.596;9.972;2023-01-29T13:33:52;87.72;;;35.83;;
3587;SDS011;1808;53.596;9.972;2023-01-29T13:36:20;112.78;;;38.58;;
3587;SDS011;1808;53.596;9.972;2023-01-29T13:38:52;115.57;;;39.53;;
3587;SDS011;1808;53.596;9.972;2023-01-29T13:41:29;101.65;;;35.38;;
3587;SDS011;1808;53.596;9.972;2023-01-29T13:43:57;114.20;;;41.10;;
3587;SDS011;1808;53.596;9.972;2023-01-29T13:46:25;79.07;;;28.98;;
3587;SDS011;1808;53.596;9.972;2023-01-29T13:48:52;99.90;;;37.25;;
3587;SDS011;1808;53.596;9.972;2023-01-29T13:51:22;111.45;;;41.47;;
3587;SDS011;1808;53.596;9.972;2023-01-29T13:53:55;119.78;;;49.17;;
3587;SDS011;1808;53.596;9.972;2023-01-29T13:59:20;105.28;;;39.90;;
3587;SDS011;1808;53.596;9.972;2023-01-29T14:02:00;130.88;;;49.42;;
3587;SDS011;1808;53.596;9.972;2023-01-29T14:04:30;113.68;;;38.05;;
3587;SDS011;1808;53.596;9.972;2023-01-29T14:06:58;115.90;;;41.45;;
3587;SDS011;1808;53.596;9.972;2023-01-29T14:12:35;96.00;;;34.83;;
3587;SDS011;1808;53.596;9.972;2023-01-29T14:15:17;108.40;;;36.92;;
3587;SDS011;1808;53.596;9.972;2023-01-29T14:17:58;119.53;;;39.35;;
3587;SDS011;1808;53.596;9.972;2023-01-29T14:20:29;110.60;;;35.50;;
3587;SDS011;1808;53.596;9.972;2023-01-29T14:22:58;113.82;;;39.42;;
3587;SDS011;1808;53.596;9.972;2023-01-29T14:25:27;122.40;;;43.70;;
3587;SDS011;1808;53.596;9.972;2023-01-29T14:27:55;130.90;;;47.38;;
3587;SDS011;1808;53.596;9.972;2023-01-29T14:30:22;113.30;;;39.45;;
3587;SDS011;1808;53.596;9.972;2023-01-29T14:32:49;123.30;;;42.38;;
3587;SDS011;1808;53.596;9.972;2023-01-29T14:35:18;141.00;;;53.90;;
3587;SDS011;1808;53.596;9.972;2023-01-29T14:37:46;120.22;;;41.33;;
3587;SDS011;1808;53.596;9.972;2023-01-29T14:40:17;103.60;;;37.13;;
3587;SDS011;1808;53.596;9.972;2023-01-29T14:42:50;128.52;;;43.58;;
3587;SDS011;1808;53.596;9.972;2023-01-29T14:45:21;128.27;;;47.95;;
3587;SDS011;1808;53.596;9.972;2023-01-29T14:47:53;111.75;;;39.72;;
3587;SDS011;1808;53.596;9.972;2023-01-29T14:53:17;110.82;;;35.95;;
3587;SDS011;1808;53.596;9.972;2023-01-29T14:55:51;121.90;;;42.28;;
3587;SDS011;1808;53.596;9.972;2023-01-29T14:58:22;113.37;;;41.53;;
3587;SDS011;1808;53.596;9.972;2023-01-29T15:00:53;126.80;;;43.55;;
3587;SDS011;1808;53.596;9.972;2023-01-29T15:03:25;109.57;;;39.30;;
3587;SDS011;1808;53.596;9.972;2023-01-29T15:05:58;150.60;;;60.92;;
3587;SDS011;1808;53.596;9.972;2023-01-29T15:08:26;126.13;;;39.60;;
3587;SDS011;1808;53.596;9.972;2023-01-29T15:10:55;110.72;;;38.85;;
3587;SDS011;1808;53.596;9.972;2023-01-29T15:13:43;118.47;;;39.40;;
3587;SDS011;1808;53.596;9.972;2023-01-29T15:16:14;130.20;;;42.72;;